Time;durP1;ratioP1;P1;durP2;ratioP2;P2;SDS_P1;SDS_P2;PMS_P1;PMS_P2;Temp;Humidity;BMP_temperature;BMP_pressure;BME280_temperature;BME280_humidity;BME280_pressure;Samples;Min_cycle;Max_cycle;Signal;HPM_P1;HPM_P2
2022/02/06 00:01:13;;;;;;;21.40;8.93;;;;;;;-0.36;95.08;99196.32;4279488;81;21130;-90
2022/02/06 00:07:15;;;;;;;20.37;8.78;;;;;;;-0.36;95.08;99196.32;4254820;81;21007;-89
2022/02/06 00:13:17;;;;;;;21.02;9.60;;;;;;;-0.32;94.58;99195.42;4284658;81;21077;-88
2022/02/06 00:19:18;;;;;;;20.92;7.17;;;;;;;-0.28;94.53;99186.98;4295508;81;22257;-89
2022/02/06 00:31:51;;;;;;;16.02;6.28;;;;;;;-0.33;94.29;99153.45;4147408;84;21658;-89
2022/02/06 00:44:03;;;;;;;17.55;6.72;;;;;;;-0.25;93.98;99154.67;4296617;81;21060;-90
2022/02/06 00:50:06;;;;;;;13.00;4.67;;;;;;;-0.16;93.44;99154.20;4265356;81;21010;-90
2022/02/06 00:56:09;;;;;;;12.68;5.22;;;;;;;-0.14;93.03;99135.84;4303565;81;21090;-89
2022/02/06 01:02:10;;;;;;;14.75;5.53;;;;;;;-0.15;92.88;99122.96;4283304;81;21086;-90
2022/02/06 01:08:11;;;;;;;9.98;4.70;;;;;;;-0.19;92.76;99113.88;4281684;80;21572;-89
2022/02/06 01:14:28;;;;;;;8.95;4.90;;;;;;;-0.12;92.07;99117.52;4293137;81;21080;-91
2022/02/06 01:20:24;;;;;;;14.35;4.55;;;;;;;-0.14;91.89;99108.40;4294693;81;21054;-91
2022/02/06 01:26:34;;;;;;;11.90;5.15;;;;;;;-0.13;91.50;99092.52;4295282;80;21017;-90
2022/02/06 01:32:39;;;;;;;13.08;4.80;;;;;;;-0.22;90.23;99060.68;4270815;81;21060;-90
2022/02/06 01:38:58;;;;;;;11.08;4.03;;;;;;;-0.22;90.23;99060.68;4261317;80;21132;-91
2022/02/06 02:09:56;;;;;;;7.97;3.42;;;;;;;0.66;87.57;99014.11;4297894;81;21543;-91
2022/02/06 02:28:47;;;;;;;7.55;3.37;;;;;;;0.79;86.24;98987.64;4264332;81;21840;-89
2022/02/06 02:47:13;;;;;;;6.95;2.98;;;;;;;0.83;84.74;98956.83;4281980;81;20272;-91
2022/02/06 02:59:25;;;;;;;8.20;3.08;;;;;;;0.85;84.56;98955.94;4251565;81;21111;-91
2022/02/06 03:05:21;;;;;;;10.15;3.70;;;;;;;0.91;84.10;98946.05;4237153;81;22161;-92
2022/02/06 03:11:26;;;;;;;6.08;3.05;;;;;;;0.90;85.03;98943.13;4289861;81;21067;-89
2022/02/06 03:17:35;;;;;;;10.13;3.30;;;;;;;0.93;84.81;98943.05;4281863;81;21041;-89
2022/02/06 03:23:39;;;;;;;7.95;3.05;;;;;;;0.96;84.27;98932.44;4237809;81;21514;-89
2022/02/06 03:29:40;;;;;;;8.00;2.77;;;;;;;1.02;84.65;98927.69;4252337;81;2105383;-91
2022/02/06 03:35:45;;;;;;;6.17;2.80;;;;;;;1.02;84.73;98916.90;4273982;81;21074;-90
2022/02/06 03:47:56;;;;;;;8.53;3.10;;;;;;;1.14;84.33;98900.92;4144073;82;21097;-89
2022/02/06 03:53:53;;;;;;;5.50;2.45;;;;;;;1.17;84.27;98901.09;4270759;81;21566;-89
2022/02/06 03:59:56;;;;;;;5.90;2.42;;;;;;;1.24;83.93;98892.52;4166967;83;21112;-88
2022/02/06 04:05:57;;;;;;;5.53;2.65;;;;;;;1.22;84.38;98898.22;4329994;80;21052;-90
2022/02/06 04:12:01;;;;;;;7.10;2.58;;;;;;;1.18;84.42;98878.41;4319136;80;22308;-90
2022/02/06 04:18:12;;;;;;;5.85;2.42;;;;;;;1.23;83.81;98862.62;4290351;80;21074;-90
2022/02/06 04:24:12;;;;;;;8.13;3.22;;;;;;;1.29;83.81;98856.76;4284098;81;21090;-89
2022/02/06 04:30:13;;;;;;;5.83;2.67;;;;;;;1.29;83.81;98843.27;4282836;80;21055;-89
2022/02/06 04:36:15;;;;;;;5.75;2.83;;;;;;;1.32;83.91;98837.78;4317245;80;21078;-90
2022/02/06 04:49:02;;;;;;;5.58;2.05;;;;;;;1.39;83.74;98825.41;4176445;82;21632;-89
2022/02/06 04:55:08;;;;;;;4.28;2.33;;;;;;;1.44;83.54;98827.17;4279904;80;21750;-89
2022/02/06 05:11:21;;;;;;;8.38;2.70;;;;;;;1.51;83.35;98813.98;4337024;80;21014;-89
2022/02/06 05:20:00;;;;;;;5.20;2.50;;;;;;;1.76;83.37;98796.94;4262752;80;21081;-89
2022/02/06 05:37:42;;;;;;;4.25;1.70;;;;;;;1.72;84.32;98793.31;4266827;80;21629;-89
2022/02/06 05:43:43;;;;;;;7.00;2.17;;;;;;;1.70;84.41;98768.55;4292553;80;21070;-88
2022/02/06 05:49:45;;;;;;;8.73;2.77;;;;;;;1.66;84.58;98761.42;4267708;82;21030;-90
2022/02/06 05:55:46;;;;;;;6.53;2.65;;;;;;;1.63;84.49;98749.34;4166756;84;21090;-93
2022/02/06 06:01:47;;;;;;;3.95;2.33;;;;;;;1.63;84.51;98748.58;4162907;84;21616;-89
2022/02/06 06:07:48;;;;;;;5.40;2.80;;;;;;;1.60;84.61;98737.85;4310236;80;21343;-88
2022/02/06 06:13:49;;;;;;;7.08;2.60;;;;;;;1.58;84.72;98742.22;4276784;82;21073;-89
2022/02/06 06:19:52;;;;;;;6.45;2.95;;;;;;;1.57;84.84;98719.06;4187572;82;22456;-88
2022/02/06 06:25:53;;;;;;;6.25;2.85;;;;;;;1.58;84.69;98719.87;4280336;80;21606;-90
2022/02/06 06:31:54;;;;;;;4.85;2.40;;;;;;;1.59;84.73;98718.74;4306494;80;20987;-88
2022/02/06 06:37:59;;;;;;;6.12;3.00;;;;;;;1.58;84.82;98706.37;4292281;81;21056;-90
2022/02/06 06:44:00;;;;;;;9.35;3.95;;;;;;;1.61;84.93;98695.70;4239636;82;21114;-88
2022/02/06 06:50:03;;;;;;;8.48;3.08;;;;;;;1.64;84.83;98690.24;4286054;81;21165;-91
2022/02/06 06:56:13;;;;;;;8.28;3.00;;;;;;;1.68;84.77;98691.16;4166926;84;21606;-88
2022/02/06 07:02:28;;;;;;;6.40;3.00;;;;;;;1.76;84.54;98688.19;4335393;80;21045;-89
2022/02/06 07:08:15;;;;;;;6.30;2.92;;;;;;;1.80;84.46;98678.34;4318158;80;21032;-88
2022/02/06 07:14:16;;;;;;;10.90;3.47;;;;;;;1.84;84.43;98669.81;4325199;80;21038;-88
2022/02/06 07:20:18;;;;;;;6.70;3.47;;;;;;;1.93;84.33;98670.01;4293221;80;21124;-91
2022/02/06 07:26:20;;;;;;;9.38;3.20;;;;;;;2.03;84.40;98663.45;4313528;80;72617;-89
2022/02/06 07:32:22;;;;;;;7.15;2.98;;;;;;;2.12;84.41;98665.53;4313364;80;21730;-90
2022/02/06 07:38:24;;;;;;;6.97;2.90;;;;;;;2.30;83.76;98648.10;4300960;81;21078;-90
2022/02/06 07:44:25;;;;;;;8.58;3.40;;;;;;;2.64;83.60;98637.81;4306877;80;21020;-90
2022/02/06 07:50:26;;;;;;;5.92;3.33;;;;;;;3.15;83.49;98632.45;4300418;81;21118;-89
2022/02/06 07:56:28;;;;;;;9.45;2.90;;;;;;;3.71;83.02;98625.42;4318348;81;21049;-91
2022/02/06 08:02:29;;;;;;;6.28;2.60;;;;;;;3.89;82.92;98614.57;4298307;81;21712;-90
2022/02/06 08:08:31;;;;;;;11.55;3.33;;;;;;;3.79;81.29;98613.70;4289220;80;21165;-90
2022/02/06 08:20:52;;;;;;;10.68;3.25;;;;;;;3.71;81.47;98600.47;4302122;81;22043;-90
2022/02/06 08:26:53;;;;;;;10.08;3.37;;;;;;;3.78;81.81;98597.20;4318873;80;21062;-90
2022/02/06 08:32:54;;;;;;;8.68;2.87;;;;;;;3.82;80.84;98598.13;4274196;80;22218;-90
2022/02/06 08:38:56;;;;;;;5.85;3.35;;;;;;;3.82;81.00;98604.89;4291042;81;21047;-91
2022/02/06 08:45:05;;;;;;;7.42;3.12;;;;;;;3.74;79.92;98603.09;4187277;81;21425;-90
2022/02/06 08:51:02;;;;;;;6.75;3.00;;;;;;;3.67;80.30;98598.23;4140633;83;21058;-90
2022/02/06 08:57:14;;;;;;;7.65;3.40;;;;;;;3.62;79.81;98609.28;4236955;82;21093;-91
2022/02/06 09:03:10;;;;;;;6.85;2.90;;;;;;;3.54;80.13;98599.94;4252471;81;21585;-90
2022/02/06 09:09:17;;;;;;;8.30;3.00;;;;;;;3.54;80.24;98591.23;4234119;82;21050;-91
2022/02/06 09:15:18;;;;;;;7.50;3.55;;;;;;;3.56;80.75;98589.54;4234682;82;21015;-91
2022/02/06 09:21:23;;;;;;;7.05;3.20;;;;;;;3.73;79.90;98574.45;4284642;81;21567;-92
2022/02/06 09:27:28;;;;;;;;;;;;;;;3.92;80.86;98567.85;4202722;81;21121;-91
2022/02/06 09:46:02;;;;;;;6.55;2.85;;;;;;;5.33;79.76;98538.04;4223089;82;21470;-92
2022/02/06 09:52:25;;;;;;;5.67;2.37;;;;;;;5.41;75.97;98519.99;4217082;81;21150;-90
2022/02/06 10:04:31;;;;;;;9.15;3.72;;;;;;;5.14;76.05;98506.75;4240564;81;21583;-91
2022/02/06 10:10:35;;;;;;;8.33;3.77;;;;;;;4.93;76.32;98499.45;4301358;80;21038;-91
2022/02/06 10:16:44;;;;;;;6.83;2.72;;;;;;;4.86;76.66;98487.06;4283550;80;21061;-91
2022/02/06 10:23:00;;;;;;;5.78;2.77;;;;;;;4.90;76.73;98473.04;4280791;80;21105;-91
2022/02/06 10:35:25;;;;;;;5.55;2.20;;;;;;;5.01;77.35;98459.73;4223221;81;21085;-91
2022/02/06 10:41:34;;;;;;;9.60;3.40;;;;;;;5.10;77.44;98438.06;4230754;82;21110;-92
2022/02/06 10:47:35;;;;;;;5.55;2.65;;;;;;;5.11;77.27;98429.33;4195170;83;21066;-91
2022/02/06 10:54:01;;;;;;;5.87;2.92;;;;;;;5.02;76.75;98407.84;4262949;80;21076;-91
2022/02/06 11:00:10;;;;;;;7.92;2.72;;;;;;;5.00;75.88;98399.25;4220260;80;21342;-91
2022/02/06 11:07:07;;;;;;;4.65;2.37;;;;;;;5.08;75.97;98371.72;4261370;81;20990;-91
2022/02/06 11:12:44;;;;;;;7.15;2.67;;;;;;;5.24;76.26;98362.41;4192218;82;21069;-92
2022/02/06 11:19:09;;;;;;;;;;;;;;;;;;;;;
2022/02/06 11:31:18;;;;;;;7.20;2.53;;;;;;;5.57;74.93;98317.94;4131774;82;7116105;-91
2022/02/06 11:44:26;;;;;;;7.70;2.83;;;;;;;5.52;74.70;98325.56;4339650;80;21137;-91
2022/02/06 11:50:31;;;;;;;6.05;2.77;;;;;;;5.41;73.15;98326.71;4301927;80;21118;-91
2022/02/06 11:56:38;;;;;;;4.87;2.35;;;;;;;5.24;74.04;98316.84;4271570;79;20998;-91
2022/02/06 12:02:47;;;;;;;8.68;2.77;;;;;;;5.08;75.13;98326.95;4328712;79;21107;-90
2022/02/06 12:09:06;;;;;;;8.15;3.25;;;;;;;4.88;76.60;98320.72;4368629;79;21097;-90
2022/02/06 12:15:31;;;;;;;6.43;2.73;;;;;;;4.64;77.40;98306.02;4381792;79;21108;-91
2022/02/06 12:21:33;;;;;;;7.75;3.10;;;;;;;4.50;78.84;98300.27;4340333;80;21033;-90
2022/02/06 12:27:35;;;;;;;6.80;2.58;;;;;;;4.40;78.97;98298.11;4352293;80;21117;-90
2022/02/06 12:33:44;;;;;;;4.45;2.58;;;;;;;4.33;79.82;98289.79;4331008;79;21116;-91
2022/02/06 12:39:49;;;;;;;8.05;2.75;;;;;;;4.26;80.44;98280.16;4324916;79;21517;-90
2022/02/06 12:45:45;;;;;;;6.08;2.85;;;;;;;4.22;81.30;98274.64;4318203;79;21489;-91
2022/02/06 12:51:57;;;;;;;6.33;2.85;;;;;;;4.17;81.52;98259.20;4342898;79;21098;-91
2022/02/06 12:58:00;;;;;;;6.03;2.83;;;;;;;4.24;81.07;98244.48;4238539;82;21118;-92
2022/02/06 13:04:08;;;;;;;5.28;2.50;;;;;;;4.42;81.33;98238.90;4260677;81;21594;-91
2022/02/06 13:10:06;;;;;;;4.97;2.20;;;;;;;4.58;81.03;98236.95;4286157;81;21030;-91
2022/02/06 13:22:52;;;;;;;5.37;2.37;;;;;;;4.78;80.80;98206.81;4266159;81;21630;-90
2022/02/06 13:29:00;;;;;;;6.58;2.67;;;;;;;4.84;80.54;98196.45;4266570;81;21133;-89
2022/02/06 13:35:24;;;;;;;6.12;2.85;;;;;;;4.84;79.62;98185.60;4292293;81;21026;-90
2022/02/06 13:41:23;;;;;;;8.43;3.37;;;;;;;4.75;79.99;98172.27;4260893;81;21096;-91
2022/02/06 13:47:22;;;;;;;5.33;2.50;;;;;;;4.74;80.01;98172.63;4239875;81;21096;-91
2022/02/06 13:53:29;;;;;;;8.75;2.62;;;;;;;4.80;79.69;98154.37;4260805;79;21101;-91
2022/02/06 13:59:38;;;;;;;6.35;2.92;;;;;;;4.87;79.26;98152.94;4178857;82;21586;-90
2022/02/06 14:05:51;;;;;;;4.45;2.25;;;;;;;4.79;78.84;98157.44;4203764;82;21596;-91
2022/02/06 14:12:05;;;;;;;5.85;2.55;;;;;;;4.66;78.74;98146.52;4247540;82;21600;-92
2022/02/06 14:18:11;;;;;;;7.40;2.92;;;;;;;4.52;79.24;98123.18;4258599;81;21086;-89
2022/02/06 14:24:16;;;;;;;5.65;2.27;;;;;;;4.38;79.91;98124.23;4182371;83;21089;-92
2022/02/06 14:30:39;;;;;;;9.68;2.60;;;;;;;4.30;79.87;98117.89;4249175;82;21110;-91
2022/02/06 14:36:39;;;;;;;5.87;2.72;;;;;;;4.23;80.09;98106.09;4276387;81;21124;-91
2022/02/06 14:43:04;;;;;;;8.95;3.47;;;;;;;4.18;80.57;98096.32;4170364;82;21181;-91
2022/02/06 14:49:06;;;;;;;9.08;4.03;;;;;;;4.13;80.62;98093.12;4185293;82;21071;-91
2022/02/06 14:55:08;;;;;;;9.00;3.10;;;;;;;4.13;80.97;98072.80;4225616;82;21103;-90
2022/02/06 15:01:13;;;;;;;8.95;3.47;;;;;;;4.13;80.75;98066.03;4251159;81;21503;-90
2022/02/06 15:07:14;;;;;;;8.05;3.50;;;;;;;4.12;80.90;98048.98;4251890;81;21769;-91
2022/02/06 15:13:21;;;;;;;7.80;3.72;;;;;;;4.22;80.43;98047.64;4259143;81;21073;-90
2022/02/06 15:19:38;;;;;;;9.70;3.58;;;;;;;4.23;80.52;98034.30;4230143;81;21673;-89
2022/02/06 15:25:26;;;;;;;7.78;3.77;;;;;;;4.22;80.08;98006.45;4268211;81;21515;-91
2022/02/06 15:31:29;;;;;;;11.00;4.00;;;;;;;4.18;80.09;97984.50;4200120;82;21088;-89
2022/02/06 15:37:37;;;;;;;10.63;3.75;;;;;;;4.17;79.54;97974.78;4253710;81;21090;-90
2022/02/06 15:43:38;;;;;;;9.85;4.10;;;;;;;4.11;79.98;97966.73;4249338;82;21034;-93
2022/02/06 15:49:39;;;;;;;8.15;3.60;;;;;;;4.11;79.76;97947.78;4263336;81;21117;-90
2022/02/06 15:55:43;;;;;;;10.90;3.70;;;;;;;4.17;78.56;97952.55;4244270;81;21645;-91
2022/02/06 16:01:50;;;;;;;9.30;3.65;;;;;;;4.18;79.05;97943.28;4154002;83;21083;-90
2022/02/06 16:07:55;;;;;;;11.30;4.57;;;;;;;4.20;79.08;97932.88;4146907;83;21098;-91
2022/02/06 16:14:02;;;;;;;16.35;6.10;;;;;;;4.23;78.59;97933.51;4335197;79;21128;-91
2022/02/06 16:20:07;;;;;;;18.02;6.90;;;;;;;4.23;78.86;97905.63;4260378;80;21123;-90
2022/02/06 16:26:11;;;;;;;6.15;2.85;;;;;;;4.23;78.92;97905.06;4224358;82;21091;-90
2022/02/06 16:32:16;;;;;;;9.18;3.90;;;;;;;4.27;78.95;97894.30;4336622;79;21741;-92
2022/02/06 16:38:22;;;;;;;11.60;4.58;;;;;;;4.32;78.68;97879.88;4321137;79;21089;-92
2022/02/06 16:44:28;;;;;;;9.98;3.98;;;;;;;4.29;78.96;97864.34;4324808;80;21071;-89
2022/02/06 16:50:30;;;;;;;7.33;3.33;;;;;;;4.31;79.13;97861.27;4375146;79;21072;-90
2022/02/06 16:56:31;;;;;;;10.20;4.03;;;;;;;4.40;79.17;97846.94;4372309;79;21074;-91
2022/02/06 17:02:35;;;;;;;9.10;4.17;;;;;;;4.44;79.33;97828.80;4305169;80;21128;-90
2022/02/06 17:08:42;;;;;;;10.90;3.50;;;;;;;4.48;79.21;97806.02;4361653;79;21041;-90
2022/02/06 17:14:43;;;;;;;11.30;3.10;;;;;;;4.52;79.07;97796.04;4278122;81;21046;-90
2022/02/06 17:20:44;;;;;;;9.13;3.70;;;;;;;4.58;78.79;97786.45;4194594;82;21099;-92
2022/02/06 17:26:51;;;;;;;8.20;4.00;;;;;;;4.63;78.39;97764.46;4196161;82;21084;-91
2022/02/06 17:32:55;;;;;;;7.97;3.40;;;;;;;4.64;78.64;97759.23;4256488;81;21078;-91
2022/02/06 17:38:56;;;;;;;8.35;3.00;;;;;;;4.71;78.30;97745.01;4235340;82;21098;-91
2022/02/06 17:45:34;;;;;;;9.03;3.20;;;;;;;4.76;77.93;97731.14;4180043;83;21067;-91
2022/02/06 17:51:46;;;;;;;7.60;3.00;;;;;;;4.76;77.57;97714.87;4192634;82;21133;-91
2022/02/06 17:57:40;;;;;;;6.08;2.98;;;;;;;4.79;77.40;97703.30;4228995;82;21328;-92
2022/02/06 18:03:44;;;;;;;6.35;1.92;;;;;;;4.81;77.27;97683.35;4029910;83;9999941;-91
2022/02/06 18:09:56;;;;;;;6.12;2.52;;;;;;;4.78;77.39;97667.82;4173563;83;21058;-91
2022/02/06 18:15:53;;;;;;;5.75;2.62;;;;;;;4.81;77.59;97657.59;4273472;81;21083;-92
2022/02/06 18:21:59;;;;;;;6.70;2.62;;;;;;;4.78;77.39;97627.95;4238594;81;22006;-91
2022/02/06 18:28:02;;;;;;;5.33;2.12;;;;;;;4.90;76.73;97619.36;4232067;81;21082;-91
2022/02/06 18:34:05;;;;;;;4.25;1.92;;;;;;;4.88;77.30;97605.38;4219006;82;21427;-90
2022/02/06 18:40:08;;;;;;;7.12;2.90;;;;;;;4.88;77.56;97604.03;4302902;81;21062;-91
2022/02/06 18:46:11;;;;;;;5.83;2.15;;;;;;;4.89;77.38;97594.17;4257386;81;21526;-91
2022/02/06 18:52:13;;;;;;;3.10;1.52;;;;;;;4.92;77.21;97597.48;4254966;80;20995;-91
2022/02/06 18:58:18;;;;;;;5.03;1.82;;;;;;;4.96;77.34;97580.70;4282972;81;21098;-90
2022/02/06 19:04:28;;;;;;;3.62;1.62;;;;;;;5.00;76.90;97572.58;4255237;81;21692;-91
2022/02/06 19:10:33;;;;;;;5.25;1.72;;;;;;;5.09;76.37;97546.71;4272197;81;21132;-91
2022/02/06 19:16:45;;;;;;;4.10;1.92;;;;;;;5.11;76.27;97518.65;4262389;81;21134;-91
2022/02/06 19:22:47;;;;;;;5.83;2.08;;;;;;;5.09;76.35;97510.69;4217501;82;21026;-91
2022/02/06 19:28:53;;;;;;;2.12;1.25;;;;;;;5.06;75.97;97491.86;4272395;81;21138;-92
2022/02/06 19:35:13;;;;;;;3.60;1.50;;;;;;;5.08;76.01;97480.64;4294939;81;21031;-90
2022/02/06 19:41:05;;;;;;;3.67;1.47;;;;;;;5.07;75.89;97461.45;4269854;81;21117;-91
2022/02/06 19:47:08;;;;;;;5.30;1.98;;;;;;;5.02;76.03;97447.67;4252214;82;21754;-93
2022/02/06 19:53:14;;;;;;;4.33;1.82;;;;;;;4.94;76.13;97435.77;4242923;82;21141;-92
2022/02/06 19:59:15;;;;;;;3.33;1.52;;;;;;;5.09;75.56;97436.11;4147598;82;21007;-90
2022/02/06 20:05:17;;;;;;;4.83;1.57;;;;;;;5.15;75.54;97418.32;4209136;82;21137;-91
2022/02/06 20:11:19;;;;;;;5.47;1.22;;;;;;;5.20;75.45;97405.77;4196815;82;21125;-92
2022/02/06 20:17:24;;;;;;;2.85;1.20;;;;;;;5.26;75.09;97369.74;4277015;81;22067;-92
2022/02/06 20:23:29;;;;;;;4.97;1.40;;;;;;;5.33;75.09;97396.14;4251340;81;21069;-92
2022/02/06 20:29:30;;;;;;;6.78;2.33;;;;;;;5.30;75.53;97375.20;4184070;82;21653;-90
2022/02/06 20:35:36;;;;;;;4.75;1.62;;;;;;;5.25;75.53;97348.42;4243632;81;21036;-91
2022/02/06 20:41:39;;;;;;;4.15;1.65;;;;;;;5.14;75.97;97326.66;4244621;81;21097;-92
2022/02/06 20:47:45;;;;;;;4.72;2.30;;;;;;;5.03;76.38;97337.27;4273967;81;21073;-92
2022/02/06 20:53:49;;;;;;;2.47;1.25;;;;;;;4.95;76.60;97303.88;4282911;81;21046;-90
2022/02/06 20:59:54;;;;;;;3.30;1.25;;;;;;;4.87;76.89;97294.14;4261822;81;21114;-92
2022/02/06 21:05:55;;;;;;;2.17;1.10;;;;;;;4.89;76.98;97302.69;4214837;81;21089;-91
2022/02/06 21:11:59;;;;;;;2.50;1.37;;;;;;;4.91;77.17;97312.59;4276774;81;20994;-91
2022/02/06 21:18:00;;;;;;;2.42;1.22;;;;;;;5.09;76.68;97285.58;4155576;82;21055;-90
2022/02/06 21:24:09;;;;;;;2.92;1.47;;;;;;;5.20;76.99;97295.30;4260131;80;21043;-92
2022/02/06 21:30:10;;;;;;;2.72;1.45;;;;;;;5.22;77.41;97298.42;4258647;81;21646;-92
2022/02/06 21:36:17;;;;;;;4.97;1.40;;;;;;;5.15;78.31;97290.27;4256524;81;21099;-92
2022/02/06 21:42:23;;;;;;;;;;;;;;;5.00;80.37;97304.89;4278255;81;21149;-91
2022/02/06 21:48:29;;;;;;;3.27;1.47;;;;;;;4.82;82.63;97288.50;4221038;81;20209;-91
2022/02/06 21:54:34;;;;;;;3.37;1.30;;;;;;;4.55;83.61;97279.05;4273347;80;21076;-92
2022/02/06 22:00:40;;;;;;;3.25;1.50;;;;;;;4.47;86.20;97281.50;4289106;81;21900;-90
2022/02/06 22:06:51;;;;;;;3.00;1.10;;;;;;;4.40;86.41;97278.72;4295094;81;22007;-90
2022/02/06 22:32:01;;;;;;;2.45;1.00;;;;;;;4.34;89.18;97239.59;4202956;82;21463;-92
2022/02/06 22:38:07;;;;;;;2.20;0.80;;;;;;;4.25;88.94;97212.63;4247724;81;22257;-91
2022/02/06 22:44:17;;;;;;;1.55;0.80;;;;;;;4.25;88.00;97204.50;4169086;82;21101;-90
2022/02/06 22:50:23;;;;;;;1.42;0.60;;;;;;;4.28;88.08;97199.13;4186564;82;21034;-91
2022/02/06 22:56:26;;;;;;;2.08;0.80;;;;;;;4.32;88.12;97197.80;4280250;81;21098;-91
2022/02/06 23:02:30;;;;;;;1.45;0.72;;;;;;;4.35;87.61;97188.31;4317301;81;21070;-91
2022/02/06 23:08:35;;;;;;;;;;;;;;;4.41;87.15;97183.34;4252094;81;21646;-91
2022/02/06 23:14:41;;;;;;;1.35;0.70;;;;;;;4.40;87.12;97172.31;4196368;82;20099;-90
2022/02/06 23:20:44;;;;;;;1.65;0.82;;;;;;;4.42;86.77;97176.19;4252190;81;21592;-90
2022/02/06 23:26:49;;;;;;;1.12;0.60;;;;;;;4.46;86.37;97174.86;4291518;81;21070;-92
2022/02/06 23:32:56;;;;;;;1.80;0.98;;;;;;;4.48;86.13;97165.75;4278798;81;21062;-91
2022/02/06 23:38:57;;;;;;;0.82;0.70;;;;;;;4.47;85.75;97156.87;4279443;81;21042;-91
2022/02/06 23:44:59;;;;;;;0.80;0.40;;;;;;;4.51;85.41;97159.60;4279614;81;21029;-91
2022/02/06 23:51:10;;;;;;;3.35;0.88;;;;;;;4.50;85.52;97147.98;4191478;83;21081;-91
2022/02/06 23:57:14;;;;;;;1.02;0.40;;;;;;;4.53;85.33;97146.43;4240430;82;21874;-91
